sensor_id;sensor_type;location;lat;lon;timestamp;pressure;altitude;pressure_sealevel;temperature;humidity
55590;BME280;41452;42.780;23.116;2023-02-01T00:00:11;94377.19;;;-1.16;100.00
55590;BME280;41452;42.780;23.116;2023-02-01T00:02:37;94378.00;;;-1.15;100.00
55590;BME280;41452;42.780;23.116;2023-02-01T00:05:07;94376.69;;;-1.19;100.00
55590;BME280;41452;42.780;23.116;2023-02-01T00:07:32;94389.41;;;-1.18;100.00
55590;BME280;41452;42.780;23.116;2023-02-01T00:09:58;94392.34;;;-1.21;100.00
55590;BME280;41452;42.780;23.116;2023-02-01T00:12:23;94392.63;;;-1.24;100.00
55590;BME280;41452;42.780;23.116;2023-02-01T00:14:48;94344.22;;;-1.55;100.00
55590;BME280;41452;42.780;23.116;2023-02-01T00:17:14;94396.81;;;-1.23;100.00
55590;BME280;41452;42.780;23.116;2023-02-01T00:19:39;94402.94;;;-1.24;100.00
55590;BME280;41452;42.780;23.116;2023-02-01T00:22:04;94396.16;;;-1.25;100.00
55590;BME280;41452;42.780;23.116;2023-02-01T00:24:30;94389.41;;;-1.26;100.00
55590;BME280;41452;42.780;23.116;2023-02-01T00:26:55;94359.56;;;-1.45;100.00
55590;BME280;41452;42.780;23.116;2023-02-01T00:29:21;94395.81;;;-1.30;100.00
55590;BME280;41452;42.780;23.116;2023-02-01T00:31:49;94394.88;;;-1.29;100.00
55590;BME280;41452;42.780;23.116;2023-02-01T00:34:16;94393.25;;;-1.30;100.00
55590;BME280;41452;42.780;23.116;2023-02-01T00:36:42;94388.44;;;-1.33;100.00
55590;BME280;41452;42.780;23.116;2023-02-01T00:39:08;94386.50;;;-1.31;100.00
55590;BME280;41452;42.780;23.116;2023-02-01T00:41:34;94385.19;;;-1.35;100.00
55590;BME280;41452;42.780;23.116;2023-02-01T00:44:00;94362.25;;;-1.55;100.00
55590;BME280;41452;42.780;23.116;2023-02-01T00:46:26;94381.94;;;-1.45;100.00
55590;BME280;41452;42.780;23.116;2023-02-01T00:48:52;94386.25;;;-1.46;100.00
55590;BME280;41452;42.780;23.116;2023-02-01T00:51:20;94385.94;;;-1.51;100.00
55590;BME280;41452;42.780;23.116;2023-02-01T00:53:46;94372.25;;;-1.51;99.93
55590;BME280;41452;42.780;23.116;2023-02-01T00:56:12;94323.00;;;-1.91;99.70
55590;BME280;41452;42.780;23.116;2023-02-01T00:58:38;94374.81;;;-1.51;99.77
55590;BME280;41452;42.780;23.116;2023-02-01T01:01:19;94376.44;;;-1.50;99.24
55590;BME280;41452;42.780;23.116;2023-02-01T01:03:47;94374.03;;;-1.52;99.27
55590;BME280;41452;42.780;23.116;2023-02-01T01:06:15;94366.44;;;-1.54;98.63
55590;BME280;41452;42.780;23.116;2023-02-01T01:08:41;94367.38;;;-1.55;98.91
55590;BME280;41452;42.780;23.116;2023-02-01T01:11:16;94369.31;;;-1.65;98.08
55590;BME280;41452;42.780;23.116;2023-02-01T01:13:43;94367.97;;;-1.69;97.27
55590;BME280;41452;42.780;23.116;2023-02-01T01:16:11;94363.66;;;-1.68;97.19
55590;BME280;41452;42.780;23.116;2023-02-01T01:18:37;94362.19;;;-1.71;97.92
55590;BME280;41452;42.780;23.116;2023-02-01T01:21:04;94366.97;;;-1.76;97.22
55590;BME280;41452;42.780;23.116;2023-02-01T01:23:30;94369.56;;;-1.76;96.95
55590;BME280;41452;42.780;23.116;2023-02-01T01:25:55;94366.97;;;-1.84;97.36
55590;BME280;41452;42.780;23.116;2023-02-01T01:28:21;94370.03;;;-1.81;97.04
55590;BME280;41452;42.780;23.116;2023-02-01T01:30:46;94365.75;;;-1.98;97.52
55590;BME280;41452;42.780;23.116;2023-02-01T01:33:12;94364.97;;;-1.99;97.88
55590;BME280;41452;42.780;23.116;2023-02-01T01:35:37;94376.63;;;-1.86;97.73
55590;BME280;41452;42.780;23.116;2023-02-01T01:38:03;94376.91;;;-1.89;97.84
55590;BME280;41452;42.780;23.116;2023-02-01T01:40:29;94382.84;;;-1.89;97.54
55590;BME280;41452;42.780;23.116;2023-02-01T01:42:55;94380.13;;;-1.87;97.87
55590;BME280;41452;42.780;23.116;2023-02-01T01:45:37;94386.06;;;-1.87;98.18
55590;BME280;41452;42.780;23.116;2023-02-01T01:48:08;94380.94;;;-1.87;97.97
55590;BME280;41452;42.780;23.116;2023-02-01T01:50:42;94378.69;;;-1.90;98.58
55590;BME280;41452;42.780;23.116;2023-02-01T01:53:11;94384.34;;;-1.86;98.18
55590;BME280;41452;42.780;23.116;2023-02-01T01:55:42;94378.50;;;-1.88;98.45
55590;BME280;41452;42.780;23.116;2023-02-01T01:58:12;94348.66;;;-2.07;97.51
55590;BME280;41452;42.780;23.116;2023-02-01T02:00:40;94372.56;;;-1.89;97.70
55590;BME280;41452;42.780;23.116;2023-02-01T02:03:27;94373.34;;;-1.88;97.79
55590;BME280;41452;42.780;23.116;2023-02-01T02:05:57;94372.72;;;-1.91;98.00
55590;BME280;41452;42.780;23.116;2023-02-01T02:08:25;94368.84;;;-1.95;98.22
55590;BME280;41452;42.780;23.116;2023-02-01T02:10:51;94373.03;;;-1.94;98.62
55590;BME280;41452;42.780;23.116;2023-02-01T02:13:40;94386.84;;;-1.95;98.88
55590;BME280;41452;42.780;23.116;2023-02-01T02:41:19;94401.28;;;-2.02;100.00
55590;BME280;41452;42.780;23.116;2023-02-01T02:47:26;94410.09;;;-2.04;100.00
55590;BME280;41452;42.780;23.116;2023-02-01T02:50:31;94399.50;;;-2.01;99.84
55590;BME280;41452;42.780;23.116;2023-02-01T02:56:35;94393.28;;;-1.99;99.31
55590;BME280;41452;42.780;23.116;2023-02-01T02:59:21;94383.28;;;-2.02;100.00
55590;BME280;41452;42.780;23.116;2023-02-01T03:02:07;94391.94;;;-2.03;100.00
55590;BME280;41452;42.780;23.116;2023-02-01T03:04:55;94394.22;;;-2.00;100.00
55590;BME280;41452;42.780;23.116;2023-02-01T03:12:49;94397.28;;;-1.96;99.76
55590;BME280;41452;42.780;23.116;2023-02-01T03:15:25;94406.50;;;-1.94;99.46
55590;BME280;41452;42.780;23.116;2023-02-01T03:17:53;94387.19;;;-1.89;99.08
55590;BME280;41452;42.780;23.116;2023-02-01T03:20:22;94402.34;;;-1.86;99.13
55590;BME280;41452;42.780;23.116;2023-02-01T03:22:51;94411.81;;;-1.87;98.66
55590;BME280;41452;42.780;23.116;2023-02-01T03:25:22;94419.75;;;-1.80;98.19
55590;BME280;41452;42.780;23.116;2023-02-01T03:28:04;94418.63;;;-1.78;96.87
55590;BME280;41452;42.780;23.116;2023-02-01T03:30:43;94415.88;;;-1.84;96.29
55590;BME280;41452;42.780;23.116;2023-02-01T03:33:17;94414.75;;;-1.82;97.41
55590;BME280;41452;42.780;23.116;2023-02-01T03:43:52;94406.88;;;-1.80;97.49
55590;BME280;41452;42.780;23.116;2023-02-01T03:46:24;94399.00;;;-1.79;96.83
55590;BME280;41452;42.780;23.116;2023-02-01T03:48:51;94398.84;;;-1.77;96.70
55590;BME280;41452;42.780;23.116;2023-02-01T03:51:20;94397.88;;;-1.76;96.80
55590;BME280;41452;42.780;23.116;2023-02-01T03:53:47;94406.72;;;-1.79;96.87
55590;BME280;41452;42.780;23.116;2023-02-01T03:56:15;94394.66;;;-1.78;97.32
55590;BME280;41452;42.780;23.116;2023-02-01T03:58:43;94392.34;;;-1.89;98.27
55590;BME280;41452;42.780;23.116;2023-02-01T04:01:23;94409.75;;;-1.83;99.78
55590;BME280;41452;42.780;23.116;2023-02-01T04:03:48;94406.22;;;-1.82;100.00
55590;BME280;41452;42.780;23.116;2023-02-01T04:06:14;94421.72;;;-1.74;99.37
55590;BME280;41452;42.780;23.116;2023-02-01T04:08:40;94411.09;;;-1.71;99.64
55590;BME280;41452;42.780;23.116;2023-02-01T04:11:05;94419.19;;;-1.66;99.27
55590;BME280;41452;42.780;23.116;2023-02-01T04:13:31;94417.09;;;-1.62;99.65
55590;BME280;41452;42.780;23.116;2023-02-01T04:15:56;94412.09;;;-1.64;98.93
55590;BME280;41452;42.780;23.116;2023-02-01T04:18:21;94422.91;;;-1.60;99.35
55590;BME280;41452;42.780;23.116;2023-02-01T04:20:47;94430.53;;;-1.50;99.46
55590;BME280;41452;42.780;23.116;2023-02-01T04:23:12;94422.47;;;-1.56;99.90
55590;BME280;41452;42.780;23.116;2023-02-01T04:25:37;94421.53;;;-1.46;99.69
55590;BME280;41452;42.780;23.116;2023-02-01T04:28:03;94420.88;;;-1.48;100.00
55590;BME280;41452;42.780;23.116;2023-02-01T04:30:29;94410.06;;;-1.52;100.00
55590;BME280;41452;42.780;23.116;2023-02-01T04:32:55;94425.72;;;-1.45;100.00
55590;BME280;41452;42.780;23.116;2023-02-01T04:35:20;94423.00;;;-1.44;100.00
55590;BME280;41452;42.780;23.116;2023-02-01T04:37:47;94430.88;;;-1.45;100.00
55590;BME280;41452;42.780;23.116;2023-02-01T04:40:12;94427.97;;;-1.42;100.00
55590;BME280;41452;42.780;23.116;2023-02-01T04:42:38;94394.22;;;-1.65;100.00
55590;BME280;41452;42.780;23.116;2023-02-01T04:45:03;94424.59;;;-1.43;100.00
55590;BME280;41452;42.780;23.116;2023-02-01T04:47:29;94417.22;;;-1.38;100.00
55590;BME280;41452;42.780;23.116;2023-02-01T04:49:54;94410.44;;;-1.47;100.00
55590;BME280;41452;42.780;23.116;2023-02-01T04:52:20;94427.03;;;-1.41;100.00
55590;BME280;41452;42.780;23.116;2023-02-01T04:54:45;94424.81;;;-1.36;100.00
55590;BME280;41452;42.780;23.116;2023-02-01T04:57:10;94422.06;;;-1.35;100.00
55590;BME280;41452;42.780;23.116;2023-02-01T04:59:39;94426.41;;;-1.35;100.00
55590;BME280;41452;42.780;23.116;2023-02-01T05:02:05;94429.47;;;-1.40;100.00
55590;BME280;41452;42.780;23.116;2023-02-01T05:04:30;94441.41;;;-1.30;100.00
55590;BME280;41452;42.780;23.116;2023-02-01T05:06:55;94440.75;;;-1.32;100.00
55590;BME280;41452;42.780;23.116;2023-02-01T05:09:21;94446.41;;;-1.29;100.00
55590;BME280;41452;42.780;23.116;2023-02-01T05:11:47;94458.16;;;-1.26;100.00
55590;BME280;41452;42.780;23.116;2023-02-01T05:14:31;94438.22;;;-1.24;100.00
55590;BME280;41452;42.780;23.116;2023-02-01T05:16:57;94445.31;;;-1.18;100.00
55590;BME280;41452;42.780;23.116;2023-02-01T05:19:22;94436.78;;;-1.19;100.00
55590;BME280;41452;42.780;23.116;2023-02-01T05:21:47;94449.53;;;-1.17;100.00
55590;BME280;41452;42.780;23.116;2023-02-01T05:24:13;94450.13;;;-1.23;100.00
55590;BME280;41452;42.780;23.116;2023-02-01T05:26:42;94428.38;;;-1.29;100.00
55590;BME280;41452;42.780;23.116;2023-02-01T05:29:09;94427.44;;;-1.20;100.00
55590;BME280;41452;42.780;23.116;2023-02-01T05:31:34;94408.06;;;-1.32;100.00
55590;BME280;41452;42.780;23.116;2023-02-01T05:34:00;94438.78;;;-1.04;100.00
55590;BME280;41452;42.780;23.116;2023-02-01T05:36:25;94437.28;;;-1.07;100.00
55590;BME280;41452;42.780;23.116;2023-02-01T05:38:51;94448.59;;;-1.00;99.48
55590;BME280;41452;42.780;23.116;2023-02-01T05:41:16;94426.97;;;-1.15;99.72
55590;BME280;41452;42.780;23.116;2023-02-01T05:43:42;94443.44;;;-1.08;99.81
55590;BME280;41452;42.780;23.116;2023-02-01T05:46:07;94439.56;;;-1.04;99.10
55590;BME280;41452;42.780;23.116;2023-02-01T05:48:35;94423.91;;;-1.19;99.59
55590;BME280;41452;42.780;23.116;2023-02-01T05:51:01;94446.00;;;-1.00;98.80
55590;BME280;41452;42.780;23.116;2023-02-01T05:53:26;94452.00;;;-0.99;98.35
55590;BME280;41452;42.780;23.116;2023-02-01T05:55:51;94446.34;;;-1.03;99.52
55590;BME280;41452;42.780;23.116;2023-02-01T05:58:17;94454.88;;;-1.02;98.55
55590;BME280;41452;42.780;23.116;2023-02-01T06:00:42;94456.03;;;-0.97;98.83
55590;BME280;41452;42.780;23.116;2023-02-01T06:03:08;94452.94;;;-1.00;98.52
55590;BME280;41452;42.780;23.116;2023-02-01T06:05:33;94461.19;;;-0.97;98.52
55590;BME280;41452;42.780;23.116;2023-02-01T06:07:58;94454.72;;;-0.92;98.54
55590;BME280;41452;42.780;23.116;2023-02-01T06:10:24;94448.63;;;-0.91;98.69
55590;BME280;41452;42.780;23.116;2023-02-01T06:12:49;94437.81;;;-0.95;98.37
55590;BME280;41452;42.780;23.116;2023-02-01T06:15:15;94454.78;;;-0.84;97.32
55590;BME280;41452;42.780;23.116;2023-02-01T06:17:43;94410.38;;;-1.12;97.13
55590;BME280;41452;42.780;23.116;2023-02-01T06:20:10;94465.13;;;-0.76;98.15
55590;BME280;41452;42.780;23.116;2023-02-01T06:22:35;94430.72;;;-0.93;96.78
55590;BME280;41452;42.780;23.116;2023-02-01T06:25:02;94454.31;;;-0.71;98.22
55590;BME280;41452;42.780;23.116;2023-02-01T06:27:28;94459.16;;;-0.68;97.12
55590;BME280;41452;42.780;23.116;2023-02-01T06:29:53;94461.91;;;-0.62;96.36
55590;BME280;41452;42.780;23.116;2023-02-01T06:32:20;94391.69;;;-1.15;97.38
55590;BME280;41452;42.780;23.116;2023-02-01T06:34:45;94455.59;;;-0.75;97.34
55590;BME280;41452;42.780;23.116;2023-02-01T06:37:11;94474.00;;;-0.70;97.44
55590;BME280;41452;42.780;23.116;2023-02-01T06:39:36;94466.59;;;-0.65;97.54
55590;BME280;41452;42.780;23.116;2023-02-01T06:42:02;94478.19;;;-0.61;97.35
55590;BME280;41452;42.780;23.116;2023-02-01T06:44:28;94469.03;;;-0.64;97.21
55590;BME280;41452;42.780;23.116;2023-02-01T06:46:53;94482.06;;;-0.57;97.10
55590;BME280;41452;42.780;23.116;2023-02-01T06:49:20;94484.50;;;-0.55;96.76
55590;BME280;41452;42.780;23.116;2023-02-01T06:51:45;94483.22;;;-0.51;96.65
55590;BME280;41452;42.780;23.116;2023-02-01T06:54:10;94492.06;;;-0.54;96.13
55590;BME280;41452;42.780;23.116;2023-02-01T06:56:36;94475.94;;;-0.64;96.91
55590;BME280;41452;42.780;23.116;2023-02-01T06:59:03;94472.38;;;-0.71;97.07
55590;BME280;41452;42.780;23.116;2023-02-01T07:01:29;94500.47;;;-0.52;96.32
55590;BME280;41452;42.780;23.116;2023-02-01T07:03:54;94507.56;;;-0.54;97.76
55590;BME280;41452;42.780;23.116;2023-02-01T07:06:20;94500.47;;;-0.52;95.86
55590;BME280;41452;42.780;23.116;2023-02-01T07:08:45;94513.38;;;-0.44;96.22
55590;BME280;41452;42.780;23.116;2023-02-01T07:11:12;94515.81;;;-0.42;96.93
55590;BME280;41452;42.780;23.116;2023-02-01T07:13:39;94490.97;;;-0.51;97.07
55590;BME280;41452;42.780;23.116;2023-02-01T07:16:07;94514.06;;;-0.33;96.83
55590;BME280;41452;42.780;23.116;2023-02-01T07:18:33;94520.81;;;-0.32;96.93
55590;BME280;41452;42.780;23.116;2023-02-01T07:20:59;94529.22;;;-0.30;96.05
55590;BME280;41452;42.780;23.116;2023-02-01T07:23:26;94527.94;;;-0.18;95.88
55590;BME280;41452;42.780;23.116;2023-02-01T07:25:56;94521.50;;;-0.14;95.03
55590;BME280;41452;42.780;23.116;2023-02-01T07:28:22;94526.69;;;-0.14;96.40
55590;BME280;41452;42.780;23.116;2023-02-01T07:30:47;94531.50;;;-0.03;97.34
55590;BME280;41452;42.780;23.116;2023-02-01T07:33:21;94534.75;;;-0.01;94.58
55590;BME280;41452;42.780;23.116;2023-02-01T07:35:47;94522.63;;;-0.08;92.87
55590;BME280;41452;42.780;23.116;2023-02-01T07:38:13;94516.19;;;-0.12;93.74
55590;BME280;41452;42.780;23.116;2023-02-01T07:40:39;94549.59;;;0.06;93.06
55590;BME280;41452;42.780;23.116;2023-02-01T07:43:04;94548.00;;;0.13;92.57
55590;BME280;41452;42.780;23.116;2023-02-01T07:45:31;94535.22;;;0.03;92.57
55590;BME280;41452;42.780;23.116;2023-02-01T07:47:57;94560.25;;;0.19;92.09
55590;BME280;41452;42.780;23.116;2023-02-01T07:50:22;94556.72;;;0.20;92.15
55590;BME280;41452;42.780;23.116;2023-02-01T07:52:47;94550.09;;;0.17;92.99
55590;BME280;41452;42.780;23.116;2023-02-01T07:55:13;94559.94;;;0.22;92.58
55590;BME280;41452;42.780;23.116;2023-02-01T07:57:38;94544.44;;;0.14;91.83
55590;BME280;41452;42.780;23.116;2023-02-01T08:00:04;94562.53;;;0.22;91.62
55590;BME280;41452;42.780;23.116;2023-02-01T08:02:48;94561.56;;;0.23;91.06
55590;BME280;41452;42.780;23.116;2023-02-01T08:05:14;94566.22;;;0.19;91.85
55590;BME280;41452;42.780;23.116;2023-02-01T08:07:39;94558.66;;;0.18;92.21
55590;BME280;41452;42.780;23.116;2023-02-01T08:10:05;94551.25;;;0.23;90.77
55590;BME280;41452;42.780;23.116;2023-02-01T08:12:36;94547.69;;;0.32;91.12
55590;BME280;41452;42.780;23.116;2023-02-01T08:15:03;94551.06;;;0.33;91.30
55590;BME280;41452;42.780;23.116;2023-02-01T08:17:29;94560.25;;;0.35;90.31
55590;BME280;41452;42.780;23.116;2023-02-01T08:19:54;94552.34;;;0.37;91.02
55590;BME280;41452;42.780;23.116;2023-02-01T08:22:19;94553.31;;;0.44;89.98
55590;BME280;41452;42.780;23.116;2023-02-01T08:24:47;94547.66;;;0.49;89.64
55590;BME280;41452;42.780;23.116;2023-02-01T08:27:13;94550.56;;;0.46;89.92
55590;BME280;41452;42.780;23.116;2023-02-01T08:29:38;94546.03;;;0.48;89.45
55590;BME280;41452;42.780;23.116;2023-02-01T08:32:04;94551.19;;;0.48;89.61
55590;BME280;41452;42.780;23.116;2023-02-01T08:34:30;94543.78;;;0.53;90.94
55590;BME280;41452;42.780;23.116;2023-02-01T08:36:55;94536.53;;;0.48;89.94
55590;BME280;41452;42.780;23.116;2023-02-01T08:39:25;94534.41;;;0.52;91.95
55590;BME280;41452;42.780;23.116;2023-02-01T08:41:51;94522.63;;;0.57;90.42
55590;BME280;41452;42.780;23.116;2023-02-01T08:44:35;94548.28;;;0.75;87.85
55590;BME280;41452;42.780;23.116;2023-02-01T08:47:02;94557.00;;;0.74;87.17
55590;BME280;41452;42.780;23.116;2023-02-01T08:49:28;94557.97;;;0.73;87.69
55590;BME280;41452;42.780;23.116;2023-02-01T08:51:54;94555.34;;;0.82;87.36
55590;BME280;41452;42.780;23.116;2023-02-01T08:54:20;94547.91;;;0.87;88.42
55590;BME280;41452;42.780;23.116;2023-02-01T08:56:46;94550.28;;;1.05;87.29
55590;BME280;41452;42.780;23.116;2023-02-01T08:59:11;94558.19;;;1.20;86.75
55590;BME280;41452;42.780;23.116;2023-02-01T09:01:36;94562.97;;;1.31;84.79
55590;BME280;41452;42.780;23.116;2023-02-01T09:04:02;94564.09;;;1.37;86.23
55590;BME280;41452;42.780;23.116;2023-02-01T09:06:27;94573.25;;;1.47;86.93
55590;BME280;41452;42.780;23.116;2023-02-01T09:08:52;94568.06;;;1.56;85.80
55590;BME280;41452;42.780;23.116;2023-02-01T09:11:18;94562.50;;;1.67;84.59
55590;BME280;41452;42.780;23.116;2023-02-01T09:13:46;94568.34;;;1.69;84.46
55590;BME280;41452;42.780;23.116;2023-02-01T09:16:12;94578.34;;;1.72;83.85
55590;BME280;41452;42.780;23.116;2023-02-01T09:18:37;94570.69;;;1.79;83.05
55590;BME280;41452;42.780;23.116;2023-02-01T09:21:06;94570.69;;;1.79;84.18
55590;BME280;41452;42.780;23.116;2023-02-01T09:23:32;94569.22;;;1.84;83.74
55590;BME280;41452;42.780;23.116;2023-02-01T09:25:59;94574.34;;;1.93;84.08
55590;BME280;41452;42.780;23.116;2023-02-01T09:28:25;94551.38;;;1.89;82.27
55590;BME280;41452;42.780;23.116;2023-02-01T09:30:55;94557.78;;;2.02;83.52
55590;BME280;41452;42.780;23.116;2023-02-01T09:33:21;94561.13;;;2.11;82.39
55590;BME280;41452;42.780;23.116;2023-02-01T09:35:48;94561.28;;;2.09;81.91
55590;BME280;41452;42.780;23.116;2023-02-01T09:38:14;94560.78;;;2.14;82.32
55590;BME280;41452;42.780;23.116;2023-02-01T09:40:42;94554.44;;;2.16;81.79
55590;BME280;41452;42.780;23.116;2023-02-01T09:43:34;94546.50;;;2.18;81.72
55590;BME280;41452;42.780;23.116;2023-02-01T09:46:21;94529.31;;;2.17;81.06
55590;BME280;41452;42.780;23.116;2023-02-01T09:48:49;94529.44;;;2.23;80.48
55590;BME280;41452;42.780;23.116;2023-02-01T09:51:23;94517.94;;;2.26;80.01
55590;BME280;41452;42.780;23.116;2023-02-01T09:54:03;94523.47;;;2.23;80.25
55590;BME280;41452;42.780;23.116;2023-02-01T09:56:40;94515.72;;;2.38;82.98
55590;BME280;41452;42.780;23.116;2023-02-01T09:59:34;94523.44;;;2.46;79.32
55590;BME280;41452;42.780;23.116;2023-02-01T10:02:08;94510.75;;;2.51;77.51
55590;BME280;41452;42.780;23.116;2023-02-01T10:04:36;94508.78;;;2.53;81.18
55590;BME280;41452;42.780;23.116;2023-02-01T10:09:36;94516.50;;;2.61;78.41
55590;BME280;41452;42.780;23.116;2023-02-01T10:26:12;94506.59;;;3.10;76.87
55590;BME280;41452;42.780;23.116;2023-02-01T10:28:41;94486.38;;;2.90;71.50
55590;BME280;41452;42.780;23.116;2023-02-01T10:31:08;94496.41;;;2.93;71.76
55590;BME280;41452;42.780;23.116;2023-02-01T10:33:39;94492.91;;;2.86;73.85
55590;BME280;41452;42.780;23.116;2023-02-01T10:38:43;94499.88;;;2.71;72.68
55590;BME280;41452;42.780;23.116;2023-02-01T10:41:14;94486.88;;;2.56;73.73
55590;BME280;41452;42.780;23.116;2023-02-01T10:43:42;94505.16;;;2.77;73.62
55590;BME280;41452;42.780;23.116;2023-02-01T10:46:08;94498.00;;;2.94;73.11
55590;BME280;41452;42.780;23.116;2023-02-01T10:48:34;94496.47;;;2.85;71.12
55590;BME280;41452;42.780;23.116;2023-02-01T10:51:03;94514.38;;;2.80;73.59
55590;BME280;41452;42.780;23.116;2023-02-01T10:53:35;94516.06;;;2.73;72.09
55590;BME280;41452;42.780;23.116;2023-02-01T10:56:08;94515.44;;;2.71;75.88
55590;BME280;41452;42.780;23.116;2023-02-01T10:58:35;94515.09;;;2.74;75.71
55590;BME280;41452;42.780;23.116;2023-02-01T11:01:07;94510.59;;;2.67;74.46
55590;BME280;41452;42.780;23.116;2023-02-01T11:16:48;94478.31;;;3.00;75.05
55590;BME280;41452;42.780;23.116;2023-02-01T11:19:16;94483.13;;;3.18;75.61
55590;BME280;41452;42.780;23.116;2023-02-01T11:21:43;94475.97;;;3.20;71.91
55590;BME280;41452;42.780;23.116;2023-02-01T13:21:22;94420.72;;;3.84;70.08
55590;BME280;41452;42.780;23.116;2023-02-01T13:23:50;94424.88;;;3.78;70.73
55590;BME280;41452;42.780;23.116;2023-02-01T13:26:16;94420.09;;;3.82;71.67
55590;BME280;41452;42.780;23.116;2023-02-01T13:28:49;94402.09;;;3.80;72.46
55590;BME280;41452;42.780;23.116;2023-02-01T13:40:07;94417.38;;;3.90;69.14
55590;BME280;41452;42.780;23.116;2023-02-01T13:42:53;94413.59;;;3.93;70.51
55590;BME280;41452;42.780;23.116;2023-02-01T13:45:26;94396.91;;;3.80;70.02
55590;BME280;41452;42.780;23.116;2023-02-01T13:47:55;94413.19;;;3.89;71.55
55590;BME280;41452;42.780;23.116;2023-02-01T13:50:33;94420.38;;;3.94;71.11
55590;BME280;41452;42.780;23.116;2023-02-01T13:53:03;94418.47;;;4.03;71.84
55590;BME280;41452;42.780;23.116;2023-02-01T13:55:34;94414.72;;;4.05;70.21
55590;BME280;41452;42.780;23.116;2023-02-01T14:00:35;94422.94;;;4.09;69.47
55590;BME280;41452;42.780;23.116;2023-02-01T14:21:25;94414.72;;;4.05;69.80
55590;BME280;41452;42.780;23.116;2023-02-01T14:26:46;94430.25;;;3.98;70.36
55590;BME280;41452;42.780;23.116;2023-02-01T14:37:06;94423.69;;;3.81;71.42
55590;BME280;41452;42.780;23.116;2023-02-01T14:42:04;94422.88;;;3.80;72.15
55590;BME280;41452;42.780;23.116;2023-02-01T14:44:34;94419.03;;;3.76;72.22
55590;BME280;41452;42.780;23.116;2023-02-01T14:50:00;94374.38;;;3.45;72.85
55590;BME280;41452;42.780;23.116;2023-02-01T14:52:34;94423.25;;;3.77;73.22
55590;BME280;41452;42.780;23.116;2023-02-01T14:55:05;94405.44;;;3.74;74.16
55590;BME280;41452;42.780;23.116;2023-02-01T14:57:34;94412.25;;;3.75;74.11
55590;BME280;41452;42.780;23.116;2023-02-01T15:00:28;94411.38;;;3.68;74.28
55590;BME280;41452;42.780;23.116;2023-02-01T15:03:23;94408.78;;;3.68;73.97
55590;BME280;41452;42.780;23.116;2023-02-01T15:05:54;94411.50;;;3.60;74.01
55590;BME280;41452;42.780;23.116;2023-02-01T15:08:25;94403.19;;;3.50;73.69
55590;BME280;41452;42.780;23.116;2023-02-01T15:10:53;94412.69;;;3.57;74.76
55590;BME280;41452;42.780;23.116;2023-02-01T15:13:25;94401.09;;;3.60;74.70
55590;BME280;41452;42.780;23.116;2023-02-01T15:16:10;94394.53;;;3.64;73.45
55590;BME280;41452;42.780;23.116;2023-02-01T15:18:36;94378.25;;;3.49;73.28
55590;BME280;41452;42.780;23.116;2023-02-01T15:21:03;94391.59;;;3.67;73.52
55590;BME280;41452;42.780;23.116;2023-02-01T15:23:29;94393.69;;;3.78;72.74
55590;BME280;41452;42.780;23.116;2023-02-01T15:25:55;94390.09;;;3.79;73.29
55590;BME280;41452;42.780;23.116;2023-02-01T15:28:21;94398.56;;;3.88;72.16
55590;BME280;41452;42.780;23.116;2023-02-01T15:30:59;94397.63;;;3.96;71.84
55590;BME280;41452;42.780;23.116;2023-02-01T15:33:25;94396.28;;;4.00;71.16
55590;BME280;41452;42.780;23.116;2023-02-01T15:36:06;94395.88;;;4.03;71.14
55590;BME280;41452;42.780;23.116;2023-02-01T15:38:44;94395.50;;;4.06;71.49
55590;BME280;41452;42.780;23.116;2023-02-01T15:41:16;94398.09;;;4.06;71.65
55590;BME280;41452;42.780;23.116;2023-02-01T15:46:17;94398.63;;;3.95;72.25
55590;BME280;41452;42.780;23.116;2023-02-01T15:48:51;94395.34;;;3.86;73.87
55590;BME280;41452;42.780;23.116;2023-02-01T15:51:27;94399.94;;;3.84;72.89
55590;BME280;41452;42.780;23.116;2023-02-01T15:56:28;94405.16;;;3.63;73.39
55590;BME280;41452;42.780;23.116;2023-02-01T15:58:58;94408.28;;;3.58;72.88
55590;BME280;41452;42.780;23.116;2023-02-01T16:01:24;94416.69;;;3.60;73.16
55590;BME280;41452;42.780;23.116;2023-02-01T16:04:04;94416.25;;;3.56;72.96
55590;BME280;41452;42.780;23.116;2023-02-01T16:06:35;94423.63;;;3.53;72.91
55590;BME280;41452;42.780;23.116;2023-02-01T16:09:12;94412.84;;;3.34;74.08
55590;BME280;41452;42.780;23.116;2023-02-01T16:11:48;94422.50;;;3.40;74.12
55590;BME280;41452;42.780;23.116;2023-02-01T16:14:14;94417.44;;;3.32;74.16
55590;BME280;41452;42.780;23.116;2023-02-01T16:16:40;94415.53;;;3.26;74.08
55590;BME280;41452;42.780;23.116;2023-02-01T16:19:05;94428.09;;;3.22;75.09
55590;BME280;41452;42.780;23.116;2023-02-01T16:21:31;94429.44;;;3.18;74.95
55590;BME280;41452;42.780;23.116;2023-02-01T16:23:56;94400.78;;;2.90;75.37
55590;BME280;41452;42.780;23.116;2023-02-01T16:26:22;94425.63;;;2.99;75.53
55590;BME280;41452;42.780;23.116;2023-02-01T16:28:47;94425.09;;;2.89;76.10
55590;BME280;41452;42.780;23.116;2023-02-01T16:31:17;94426.09;;;2.88;76.32
55590;BME280;41452;42.780;23.116;2023-02-01T16:33:49;94429.38;;;2.82;75.96
55590;BME280;41452;42.780;23.116;2023-02-01T16:36:16;94426.69;;;2.75;76.52
55590;BME280;41452;42.780;23.116;2023-02-01T16:38:42;94435.22;;;2.69;77.51
55590;BME280;41452;42.780;23.116;2023-02-01T16:41:13;94436.19;;;2.68;77.78
55590;BME280;41452;42.780;23.116;2023-02-01T16:43:39;94436.81;;;2.55;77.79
55590;BME280;41452;42.780;23.116;2023-02-01T16:46:04;94416.16;;;2.32;79.18
55590;BME280;41452;42.780;23.116;2023-02-01T16:48:33;94438.34;;;2.35;78.88
55590;BME280;41452;42.780;23.116;2023-02-01T16:51:07;94435.25;;;2.16;79.40
55590;BME280;41452;42.780;23.116;2023-02-01T16:53:33;94433.28;;;2.18;79.55
55590;BME280;41452;42.780;23.116;2023-02-01T16:55:59;94405.00;;;1.94;79.34
55590;BME280;41452;42.780;23.116;2023-02-01T16:58:26;94414.09;;;1.89;79.97
55590;BME280;41452;42.780;23.116;2023-02-01T17:00:52;94428.50;;;1.92;79.69
55590;BME280;41452;42.780;23.116;2023-02-01T17:03:19;94432.06;;;1.91;80.11
55590;BME280;41452;42.780;23.116;2023-02-01T17:05:53;94418.38;;;1.82;80.60